createdAt,value
2023-01-20T00:01:43.299Z,0.70
2023-01-20T00:04:15.459Z,0.70
2023-01-20T00:06:42.369Z,0.70
2023-01-20T00:09:17.333Z,0.70
2023-01-20T00:11:44.831Z,0.70
2023-01-20T00:14:11.818Z,0.70
2023-01-20T00:16:38.919Z,0.60
2023-01-20T00:19:07.002Z,0.70
2023-01-20T00:21:35.154Z,0.70
2023-01-20T00:24:02.085Z,0.70
2023-01-20T00:26:28.966Z,0.80
2023-01-20T00:28:57.725Z,0.70
2023-01-20T00:31:27.477Z,0.70
2023-01-20T00:33:56.937Z,0.70
2023-01-20T00:36:27.635Z,0.70
2023-01-20T00:38:54.704Z,0.70
2023-01-20T00:41:21.601Z,0.60
2023-01-20T00:43:48.581Z,0.60
2023-01-20T00:46:15.732Z,0.60
2023-01-20T00:48:42.885Z,0.60
2023-01-20T00:51:10.551Z,0.60
2023-01-20T00:53:37.831Z,0.70
2023-01-20T00:56:05.499Z,0.60
2023-01-20T00:58:32.396Z,0.60
2023-01-20T01:00:59.910Z,0.60
2023-01-20T01:03:28.169Z,0.70
2023-01-20T01:06:04.958Z,0.80
2023-01-20T01:08:31.802Z,0.70
2023-01-20T01:10:58.715Z,0.80
2023-01-20T01:13:25.681Z,0.70
2023-01-20T01:15:52.965Z,0.80
2023-01-20T01:18:19.940Z,0.80
2023-01-20T01:20:46.861Z,0.70
2023-01-20T01:23:13.936Z,0.70
2023-01-20T01:25:40.885Z,0.70
2023-01-20T01:28:07.826Z,0.70
2023-01-20T01:30:34.812Z,0.90
2023-01-20T01:33:01.763Z,0.80
2023-01-20T01:35:28.682Z,0.70
2023-01-20T01:37:55.607Z,0.70
2023-01-20T01:40:22.494Z,0.80
2023-01-20T01:42:49.426Z,0.80
2023-01-20T01:45:23.083Z,0.80
2023-01-20T01:48:02.109Z,1.00
2023-01-20T01:50:53.186Z,0.70
2023-01-20T01:53:20.297Z,0.90
2023-01-20T01:55:56.226Z,0.90
2023-01-20T01:58:29.933Z,0.70
2023-01-20T02:00:56.843Z,0.80
2023-01-20T02:03:26.606Z,0.70
2023-01-20T02:05:55.259Z,0.80
2023-01-20T02:08:22.685Z,0.80
2023-01-20T02:10:49.546Z,0.70
2023-01-20T02:13:16.731Z,0.70
2023-01-20T02:16:10.716Z,0.70
2023-01-20T02:19:02.887Z,0.70
2023-01-20T02:21:32.584Z,0.70
2023-01-20T02:24:08.347Z,0.80
2023-01-20T02:26:47.417Z,0.80
2023-01-20T02:29:17.005Z,0.60
2023-01-20T02:31:59.111Z,0.90
2023-01-20T02:34:50.100Z,0.90
2023-01-20T02:37:28.277Z,1.00
2023-01-20T02:40:21.655Z,0.90
2023-01-20T02:42:57.740Z,0.70
2023-01-20T02:45:44.995Z,0.80
2023-01-20T02:48:27.635Z,0.80
2023-01-20T02:51:05.401Z,0.80
2023-01-20T02:53:43.864Z,0.80
2023-01-20T02:56:12.710Z,1.00
2023-01-20T02:58:42.345Z,0.80
2023-01-20T03:01:15.288Z,0.80
2023-01-20T03:03:46.087Z,0.70
2023-01-20T03:06:19.346Z,0.80
2023-01-20T03:08:48.803Z,0.80
2023-01-20T03:11:16.225Z,0.70
2023-01-20T03:14:01.265Z,0.80
2023-01-20T03:16:30.192Z,0.80
2023-01-20T03:18:57.189Z,0.80
2023-01-20T03:21:24.657Z,0.80
2023-01-20T03:23:54.829Z,0.80
2023-01-20T03:26:23.643Z,0.80
2023-01-20T03:28:51.230Z,0.80
2023-01-20T03:31:26.273Z,0.80
2023-01-20T03:33:57.412Z,0.70
2023-01-20T03:36:26.424Z,0.70
2023-01-20T03:38:54.736Z,1.40
2023-01-20T03:41:44.530Z,0.60
2023-01-20T03:44:20.961Z,0.70
2023-01-20T03:46:52.779Z,0.60
2023-01-20T03:49:57.116Z,0.60
2023-01-20T03:53:08.940Z,0.60
2023-01-20T03:55:47.829Z,0.70
2023-01-20T03:58:20.736Z,0.60
2023-01-20T04:00:51.145Z,0.60
2023-01-20T04:03:27.297Z,0.70
2023-01-20T04:05:55.800Z,0.70
2023-01-20T04:08:28.910Z,0.70
2023-01-20T04:10:59.444Z,0.70
2023-01-20T04:13:26.347Z,0.50
2023-01-20T04:15:53.337Z,0.60
2023-01-20T04:18:23.415Z,0.60
2023-01-20T04:21:13.479Z,0.80
2023-01-20T04:23:45.796Z,0.60
2023-01-20T04:26:12.672Z,0.60
2023-01-20T04:28:39.526Z,0.70
2023-01-20T04:31:07.083Z,0.70
2023-01-20T04:33:38.984Z,0.60
2023-01-20T04:36:06.067Z,0.60
2023-01-20T04:38:32.985Z,0.60
2023-01-20T04:41:01.090Z,0.70
2023-01-20T04:43:28.986Z,0.70
2023-01-20T04:45:55.970Z,0.70
2023-01-20T04:48:22.915Z,0.60
2023-01-20T04:50:49.806Z,0.60
2023-01-20T04:53:19.323Z,0.60
2023-01-20T04:55:46.896Z,0.60
2023-01-20T04:58:13.858Z,0.70
2023-01-20T05:00:43.472Z,0.60
2023-01-20T05:03:10.587Z,0.60
2023-01-20T05:05:37.525Z,0.60
2023-01-20T05:08:04.886Z,0.60
2023-01-20T05:10:32.901Z,0.60
2023-01-20T05:13:00.525Z,0.50
2023-01-20T05:15:28.192Z,0.50
2023-01-20T05:17:55.083Z,0.50
2023-01-20T05:20:22.000Z,0.60
2023-01-20T05:22:48.890Z,0.50
2023-01-20T05:25:17.992Z,0.50
2023-01-20T05:27:45.170Z,0.50
2023-01-20T05:30:12.422Z,0.50
2023-01-20T05:32:39.343Z,0.50
2023-01-20T05:35:06.820Z,0.80
2023-01-20T05:37:33.738Z,0.50
2023-01-20T05:40:00.598Z,0.60
2023-01-20T05:42:27.565Z,0.60
2023-01-20T05:44:54.435Z,0.60
2023-01-20T05:47:21.311Z,0.60
2023-01-20T05:49:48.195Z,0.60
2023-01-20T05:52:15.082Z,0.60
2023-01-20T05:54:41.956Z,0.70
2023-01-20T05:57:08.889Z,0.60
2023-01-20T05:59:35.865Z,0.70
2023-01-20T06:02:05.272Z,0.70
2023-01-20T06:04:32.195Z,0.70
2023-01-20T06:06:59.118Z,0.70
2023-01-20T06:09:26.036Z,0.80
2023-01-20T06:11:52.938Z,1.00
2023-01-20T06:14:19.862Z,0.90
2023-01-20T06:16:46.745Z,0.80
2023-01-20T06:19:13.768Z,0.90
2023-01-20T06:21:40.761Z,0.90
2023-01-20T06:24:07.823Z,0.90
2023-01-20T06:26:34.798Z,0.90
2023-01-20T06:29:01.753Z,1.00
2023-01-20T06:31:28.719Z,0.90
2023-01-20T06:33:56.394Z,1.00
2023-01-20T06:36:23.444Z,0.80
2023-01-20T06:38:53.172Z,0.90
2023-01-20T06:41:21.394Z,0.90
2023-01-20T06:43:50.193Z,0.90
2023-01-20T06:46:17.541Z,0.80
2023-01-20T06:48:45.891Z,0.80
2023-01-20T06:51:19.184Z,0.80
2023-01-20T06:53:47.018Z,0.90
2023-01-20T06:56:15.333Z,1.00
2023-01-20T06:58:42.659Z,0.80
2023-01-20T07:01:13.401Z,0.90
2023-01-20T07:03:43.535Z,0.90
2023-01-20T07:06:15.309Z,1.00
2023-01-20T07:08:46.205Z,1.10
2023-01-20T07:11:13.218Z,1.20
2023-01-20T07:13:40.268Z,1.20
2023-01-20T07:16:10.173Z,1.30
2023-01-20T07:18:38.355Z,1.20
2023-01-20T07:21:05.835Z,1.20
2023-01-20T07:23:33.840Z,1.20
2023-01-20T07:26:10.386Z,1.20
2023-01-20T07:28:38.162Z,1.10
2023-01-20T07:31:12.251Z,1.10
2023-01-20T07:33:39.801Z,1.10
2023-01-20T07:36:08.650Z,1.10
2023-01-20T07:38:35.768Z,1.10
2023-01-20T07:41:07.485Z,1.20
2023-01-20T07:43:34.670Z,1.20
2023-01-20T07:46:04.244Z,1.20
2023-01-20T07:48:33.247Z,1.30
2023-01-20T07:51:03.220Z,1.40
2023-01-20T07:53:33.111Z,1.40
2023-01-20T07:56:07.111Z,1.50
2023-01-20T07:58:34.835Z,1.60
2023-01-20T08:01:31.919Z,1.50
2023-01-20T08:04:03.060Z,1.60
2023-01-20T08:06:30.710Z,1.70
2023-01-20T08:09:01.625Z,1.80
2023-01-20T08:11:28.509Z,1.80
2023-01-20T08:13:55.817Z,1.90
2023-01-20T08:16:24.993Z,1.90
2023-01-20T08:18:54.364Z,2.00
2023-01-20T08:21:22.553Z,2.30
2023-01-20T08:23:50.318Z,2.30
2023-01-20T08:26:19.620Z,2.20
2023-01-20T08:28:47.362Z,3.00
2023-01-20T08:31:18.331Z,2.40
2023-01-20T08:33:47.780Z,2.40
2023-01-20T08:38:49.863Z,2.50
2023-01-20T08:43:45.948Z,3.00
2023-01-20T08:46:14.644Z,3.10
2023-01-20T08:48:43.361Z,3.40
2023-01-20T08:51:16.310Z,3.60
2023-01-20T08:53:43.913Z,3.80
2023-01-20T08:56:11.719Z,4.20
2023-01-20T08:58:39.253Z,4.40
2023-01-20T09:01:18.954Z,4.40
2023-01-20T09:03:59.281Z,4.50
2023-01-20T09:06:31.659Z,4.50
2023-01-20T09:08:58.687Z,4.60
2023-01-20T09:11:26.377Z,4.90
2023-01-20T09:13:54.364Z,4.80
2023-01-20T09:16:21.456Z,4.70
2023-01-20T09:18:48.334Z,4.50
2023-01-20T09:21:15.263Z,4.60
2023-01-20T09:23:43.500Z,5.20
2023-01-20T09:26:14.475Z,5.60
2023-01-20T09:28:47.487Z,5.70
2023-01-20T09:31:14.581Z,6.40
2023-01-20T09:33:43.802Z,6.90
2023-01-20T09:36:11.457Z,7.80
2023-01-20T09:38:57.148Z,7.90
2023-01-20T09:44:38.146Z,6.20
2023-01-20T09:47:35.355Z,6.30
2023-01-20T09:50:42.106Z,6.30
2023-01-20T09:53:16.325Z,6.30
2023-01-20T09:55:50.256Z,6.80
2023-01-20T09:58:30.590Z,6.90
2023-01-20T10:01:24.587Z,6.50
2023-01-20T10:03:57.337Z,6.40
2023-01-20T10:06:44.103Z,6.70
2023-01-20T10:09:32.692Z,6.40
2023-01-20T10:12:23.052Z,6.20
2023-01-20T10:15:13.324Z,6.30
2023-01-20T10:17:47.533Z,6.40
2023-01-20T10:20:29.530Z,6.90
2023-01-20T10:23:08.375Z,7.00
2023-01-20T10:25:51.969Z,8.60
2023-01-20T10:29:02.767Z,6.50
2023-01-20T10:31:43.442Z,6.00
2023-01-20T10:34:15.975Z,5.40
2023-01-20T10:36:46.719Z,5.30
2023-01-20T10:39:22.404Z,5.20
2023-01-20T10:41:55.189Z,4.10
2023-01-20T10:44:23.299Z,4.90
2023-01-20T10:47:16.904Z,5.00
2023-01-20T10:49:56.593Z,5.00
2023-01-20T10:52:36.245Z,4.70
2023-01-20T10:55:23.146Z,4.90
2023-01-20T10:58:16.861Z,4.60
2023-01-20T11:00:44.527Z,4.50
2023-01-20T11:03:18.386Z,4.70
2023-01-20T11:05:47.520Z,4.40
2023-01-20T11:08:26.876Z,5.30
2023-01-20T11:11:15.713Z,4.60
2023-01-20T11:13:42.772Z,4.60
2023-01-20T11:16:31.685Z,4.70
2023-01-20T11:19:00.755Z,4.70
2023-01-20T11:21:35.904Z,4.70
2023-01-20T11:24:23.607Z,4.50
2023-01-20T11:26:52.747Z,4.60
2023-01-20T11:29:19.563Z,5.00
2023-01-20T11:31:58.280Z,5.50
2023-01-20T11:34:33.889Z,5.40
2023-01-20T11:37:06.456Z,5.70
2023-01-20T11:39:42.774Z,5.60
2023-01-20T11:42:30.136Z,4.90
2023-01-20T11:45:20.683Z,5.00
2023-01-20T11:48:16.154Z,4.50
2023-01-20T11:50:58.400Z,4.40
2023-01-20T11:53:28.013Z,4.10
2023-01-20T11:56:04.258Z,4.10
2023-01-20T11:59:02.084Z,4.40
2023-01-20T12:01:49.043Z,4.60
2023-01-20T12:04:19.137Z,5.10
2023-01-20T12:06:52.034Z,5.10
2023-01-20T12:09:23.196Z,4.90
2023-01-20T12:11:56.450Z,4.60
2023-01-20T12:14:40.457Z,4.60
2023-01-20T12:17:26.247Z,4.30
2023-01-20T12:20:11.697Z,4.00
2023-01-20T12:22:53.101Z,3.90
2023-01-20T12:25:31.136Z,3.60
2023-01-20T12:28:09.641Z,3.50
2023-01-20T12:30:59.269Z,3.40
2023-01-20T12:33:32.863Z,3.40
2023-01-20T12:36:17.728Z,3.30
2023-01-20T12:39:03.440Z,3.20
2023-01-20T12:42:06.136Z,3.20
2023-01-20T12:44:43.246Z,3.10
2023-01-20T12:47:18.586Z,3.10
2023-01-20T12:50:20.153Z,3.00
2023-01-20T12:53:24.978Z,2.90
2023-01-20T12:56:22.897Z,3.00
2023-01-20T12:59:11.550Z,2.80
2023-01-20T13:01:56.966Z,2.80
2023-01-20T13:04:38.932Z,2.90
2023-01-20T13:07:11.925Z,2.80
2023-01-20T13:09:54.907Z,2.70
2023-01-20T13:12:39.073Z,2.60
2023-01-20T13:15:29.286Z,2.60
2023-01-20T13:17:56.683Z,2.70
2023-01-20T13:20:27.449Z,2.60
2023-01-20T13:22:56.121Z,2.70
2023-01-20T13:25:24.852Z,2.60
2023-01-20T13:28:31.999Z,2.60
2023-01-20T13:31:01.344Z,2.50
2023-01-20T13:33:37.938Z,2.50
2023-01-20T13:36:16.499Z,2.50
2023-01-20T13:38:44.161Z,2.50
2023-01-20T13:41:11.644Z,2.50
2023-01-20T13:43:44.322Z,2.40
2023-01-20T13:46:17.678Z,2.30
2023-01-20T13:49:13.407Z,2.30
2023-01-20T13:51:45.293Z,2.30
2023-01-20T13:54:36.794Z,2.20
2023-01-20T13:57:33.904Z,2.10
2023-01-20T14:00:00.863Z,2.20
2023-01-20T14:02:35.030Z,2.10
2023-01-20T14:05:02.108Z,2.10
2023-01-20T14:07:31.277Z,2.10
2023-01-20T14:10:00.476Z,2.10
2023-01-20T14:12:29.007Z,2.00
2023-01-20T14:14:56.123Z,2.00
2023-01-20T14:17:24.928Z,2.00
2023-01-20T14:19:56.206Z,2.00
2023-01-20T14:22:24.311Z,2.00
2023-01-20T14:24:57.482Z,1.90
2023-01-20T14:27:32.296Z,1.90
2023-01-20T14:30:20.700Z,1.80
2023-01-20T14:32:48.028Z,1.80
2023-01-20T14:35:33.439Z,1.80
2023-01-20T14:38:00.998Z,1.80
2023-01-20T14:40:31.573Z,1.80
2023-01-20T14:43:19.604Z,1.80
2023-01-20T14:45:49.086Z,1.80
2023-01-20T14:48:32.451Z,1.70
2023-01-20T14:51:02.771Z,1.70
2023-01-20T14:53:29.705Z,1.70
2023-01-20T14:56:04.604Z,1.70
2023-01-20T14:58:33.216Z,1.70
2023-01-20T15:01:23.743Z,1.70
2023-01-20T15:04:00.514Z,1.60
2023-01-20T15:06:27.622Z,1.70
2023-01-20T15:09:06.232Z,1.60
2023-01-20T15:11:34.366Z,1.60
2023-01-20T15:14:08.820Z,1.50
2023-01-20T15:16:44.692Z,1.50
2023-01-20T15:19:37.662Z,1.50
2023-01-20T15:22:22.264Z,1.50
2023-01-20T15:24:50.411Z,1.60
2023-01-20T15:27:26.830Z,1.60
2023-01-20T15:30:18.852Z,1.60
2023-01-20T15:32:48.198Z,1.50
2023-01-20T15:35:20.054Z,1.50
2023-01-20T15:37:47.368Z,1.50
2023-01-20T15:40:24.969Z,1.50
2023-01-20T15:42:53.594Z,1.40
2023-01-20T15:45:20.707Z,1.50
2023-01-20T15:47:50.111Z,1.40
2023-01-20T15:50:23.078Z,1.40
2023-01-20T15:52:50.586Z,1.40
2023-01-20T15:55:19.095Z,1.40
2023-01-20T15:57:49.582Z,1.30
2023-01-20T16:00:21.730Z,1.40
2023-01-20T16:02:48.904Z,1.40
2023-01-20T16:05:17.721Z,1.40
2023-01-20T16:07:47.050Z,1.50
2023-01-20T16:10:16.590Z,1.50
2023-01-20T16:12:51.266Z,1.60
2023-01-20T16:15:18.454Z,1.60
2023-01-20T16:17:45.647Z,1.60
2023-01-20T16:20:19.928Z,1.50
2023-01-20T16:22:46.917Z,1.50
2023-01-20T16:25:16.390Z,1.50
2023-01-20T16:27:43.342Z,1.50
2023-01-20T16:30:19.389Z,1.50
2023-01-20T16:32:49.014Z,1.50
2023-01-20T16:35:17.751Z,1.50
2023-01-20T16:37:46.300Z,1.40
2023-01-20T16:40:19.736Z,1.50
2023-01-20T16:42:47.485Z,1.40
2023-01-20T16:45:30.012Z,1.40
2023-01-20T16:47:57.332Z,1.40
2023-01-20T16:50:28.401Z,1.40
2023-01-20T16:52:55.563Z,1.50
2023-01-20T16:55:25.045Z,1.40
2023-01-20T16:57:51.940Z,1.40
2023-01-20T17:00:19.784Z,1.40
2023-01-20T17:02:52.863Z,1.40
2023-01-20T17:05:22.821Z,1.40
2023-01-20T17:07:50.323Z,1.40
2023-01-20T17:10:18.462Z,1.40
2023-01-20T17:12:48.629Z,1.40
2023-01-20T17:15:18.153Z,1.30
2023-01-20T17:17:51.884Z,1.30
2023-01-20T17:20:18.950Z,1.30
2023-01-20T17:22:46.197Z,1.30
2023-01-20T17:25:17.863Z,1.30
2023-01-20T17:27:45.273Z,1.30
2023-01-20T17:30:12.391Z,1.30
2023-01-20T17:32:39.529Z,1.20
2023-01-20T17:35:06.893Z,1.20
2023-01-20T17:37:33.773Z,1.20
2023-01-20T17:40:02.025Z,1.20
2023-01-20T17:42:28.915Z,1.20
2023-01-20T17:45:01.364Z,1.20
2023-01-20T17:47:31.361Z,1.00
2023-01-20T17:49:58.402Z,1.00
2023-01-20T17:52:25.440Z,0.90
2023-01-20T17:54:54.525Z,0.90
2023-01-20T17:57:21.998Z,0.80
2023-01-20T17:59:49.064Z,0.90
2023-01-20T18:02:18.840Z,0.90
2023-01-20T18:04:45.725Z,0.90
2023-01-20T18:07:12.618Z,0.90
2023-01-20T18:09:41.054Z,1.00
2023-01-20T18:12:09.786Z,1.00
2023-01-20T18:14:36.679Z,1.00
2023-01-20T18:17:03.614Z,1.00
2023-01-20T18:19:33.103Z,1.10
2023-01-20T18:22:02.008Z,1.10
2023-01-20T18:24:31.394Z,1.10
2023-01-20T18:26:58.264Z,1.10
2023-01-20T18:29:25.251Z,1.10
2023-01-20T18:31:57.296Z,1.10
2023-01-20T18:34:28.729Z,1.10
2023-01-20T18:36:55.624Z,1.10
2023-01-20T18:39:25.024Z,1.10
2023-01-20T18:41:52.191Z,1.10
2023-01-20T18:44:20.310Z,1.10
2023-01-20T18:46:49.474Z,1.10
2023-01-20T18:49:17.265Z,1.10
2023-01-20T18:51:44.332Z,1.10
2023-01-20T18:54:14.951Z,1.00
2023-01-20T18:56:41.855Z,1.00
2023-01-20T18:59:09.200Z,1.00
2023-01-20T19:01:40.300Z,1.00
2023-01-20T19:04:09.924Z,1.00
2023-01-20T19:06:39.535Z,1.00
2023-01-20T19:09:07.501Z,1.00
2023-01-20T19:11:39.579Z,1.00
2023-01-20T19:14:08.567Z,1.00
2023-01-20T19:16:39.490Z,1.00
2023-01-20T19:19:07.235Z,0.90
2023-01-20T19:21:36.233Z,0.90
2023-01-20T19:24:08.008Z,0.90
2023-01-20T19:26:39.093Z,0.90
2023-01-20T19:29:07.282Z,0.90
2023-01-20T19:31:39.123Z,0.80
2023-01-20T19:34:09.502Z,0.80
2023-01-20T19:36:36.995Z,0.90
2023-01-20T19:39:04.777Z,0.80
2023-01-20T19:41:34.442Z,0.80
2023-01-20T19:44:03.300Z,0.80
2023-01-20T19:46:33.221Z,0.80
2023-01-20T19:49:02.250Z,0.70
2023-01-20T19:51:31.383Z,0.70
2023-01-20T19:54:00.405Z,0.70
2023-01-20T19:56:30.401Z,0.60
2023-01-20T19:59:00.763Z,0.60
2023-01-20T20:01:36.043Z,0.60
2023-01-20T20:04:11.525Z,0.60
2023-01-20T20:06:48.403Z,0.60
2023-01-20T20:09:20.814Z,0.50
2023-01-20T20:11:49.111Z,0.60
2023-01-20T20:14:18.683Z,0.50
2023-01-20T20:16:46.247Z,0.50
2023-01-20T20:19:16.336Z,0.40
2023-01-20T20:21:44.179Z,0.50
2023-01-20T20:24:12.722Z,0.40
2023-01-20T20:26:39.920Z,0.40
2023-01-20T20:29:08.223Z,0.40
2023-01-20T20:31:36.864Z,0.40
2023-01-20T20:34:06.338Z,0.40
2023-01-20T20:36:33.743Z,0.40
2023-01-20T20:39:05.039Z,0.40
2023-01-20T20:41:33.350Z,0.40
2023-01-20T20:44:03.625Z,0.40
2023-01-20T20:46:31.159Z,0.40
2023-01-20T20:48:59.822Z,0.40
2023-01-20T20:51:28.105Z,0.40
2023-01-20T20:53:56.246Z,0.30
2023-01-20T20:56:24.645Z,0.40
2023-01-20T20:59:01.586Z,0.30
2023-01-20T21:01:30.721Z,0.30
2023-01-20T21:03:58.192Z,0.30
2023-01-20T21:06:25.970Z,0.20
2023-01-20T21:08:53.160Z,0.20
2023-01-20T21:11:20.644Z,0.20
2023-01-20T21:13:49.965Z,0.20
2023-01-20T21:16:22.118Z,0.10
2023-01-20T21:18:50.258Z,0.10
2023-01-20T21:21:17.518Z,0.10
2023-01-20T21:23:50.746Z,0.10
2023-01-20T21:26:17.716Z,0.10
2023-01-20T21:28:44.702Z,0.10
2023-01-20T21:31:13.909Z,0.10
2023-01-20T21:33:42.421Z,0.10
2023-01-20T21:36:12.460Z,0.10
2023-01-20T21:38:42.977Z,0.10
2023-01-20T21:41:11.169Z,0.00
2023-01-20T21:43:59.259Z,0.00
2023-01-20T21:46:29.423Z,0.00
2023-01-20T21:49:14.811Z,0.00
2023-01-20T21:52:00.391Z,0.00
2023-01-20T21:54:31.831Z,0.00
2023-01-20T21:56:59.335Z,0.00
2023-01-20T21:59:27.998Z,-0.10
2023-01-20T22:01:57.516Z,0.00
2023-01-20T22:04:26.660Z,-0.10
2023-01-20T22:06:53.547Z,0.00
2023-01-20T22:09:20.618Z,-0.10
2023-01-20T22:11:47.569Z,-0.10
2023-01-20T22:14:16.799Z,-0.10
2023-01-20T22:16:44.028Z,-0.10
2023-01-20T22:19:14.755Z,-0.10
2023-01-20T22:21:41.716Z,-0.10
2023-01-20T22:24:11.632Z,-0.10
2023-01-20T22:26:38.587Z,-0.10
2023-01-20T22:29:05.541Z,-0.10
2023-01-20T22:31:34.233Z,-0.10
2023-01-20T22:34:05.293Z,-0.10
2023-01-20T22:36:32.591Z,-0.10
2023-01-20T22:39:00.065Z,-0.20
2023-01-20T22:41:27.095Z,-0.20
2023-01-20T22:43:55.880Z,-0.20
2023-01-20T22:46:25.998Z,-0.20
2023-01-20T22:48:55.370Z,-0.20
2023-01-20T22:51:24.420Z,-0.30
2023-01-20T22:53:54.292Z,-0.30
2023-01-20T22:56:23.617Z,-0.30
2023-01-20T22:58:51.313Z,-0.30
2023-01-20T23:01:21.601Z,-0.30
2023-01-20T23:03:53.005Z,-0.30
2023-01-20T23:06:19.889Z,-0.40
2023-01-20T23:08:46.774Z,-0.40
2023-01-20T23:11:15.323Z,-0.40
2023-01-20T23:13:42.832Z,-0.40
2023-01-20T23:16:18.138Z,-0.40
2023-01-20T23:18:46.761Z,-0.50
2023-01-20T23:21:13.818Z,-0.50
2023-01-20T23:23:40.756Z,-0.50
2023-01-20T23:26:15.350Z,-0.50
2023-01-20T23:28:43.741Z,-0.50
2023-01-20T23:31:12.814Z,-0.60
2023-01-20T23:33:41.366Z,-0.60
2023-01-20T23:36:15.460Z,-0.70
2023-01-20T23:38:43.167Z,-0.60
2023-01-20T23:41:11.211Z,-0.70
2023-01-20T23:43:38.160Z,-0.70
2023-01-20T23:46:06.802Z,-0.70
2023-01-20T23:48:34.658Z,-0.80
2023-01-20T23:51:02.212Z,-0.80
2023-01-20T23:53:31.463Z,-0.80
2023-01-20T23:56:20.680Z,-0.80
2023-01-20T23:58:47.801Z,-0.80
